ZSMUL FZAA-FCOI
Flight info
| Callsign | ZSMUL |
|---|---|
| Flight time | 1h 57m |
| Altitude | 17000 |
| Route | GUSAR4B GUSAR V30 MBA ATS29 ARERI |
| Aircraft | DC6/M-SDFGRWY/S |
Departure
| Time | 2026-05-07 10:44 |
|---|---|
| Airport | Ndjili International Airport (FZAA) |
Arrival
| Time | 2026-05-07 12:41 |
|---|---|
| Airport | Impfondo Airport (FCOI) |
| Time | Latitude | Longitude | Altitude | Speed | Heading |
|---|---|---|---|---|---|
| 2026-05-07 10:20 | -4.38894 | 15.44501 | 1018 ft | 0 kts | 198° |
| 2026-05-07 10:30 | -4.38892 | 15.44502 | 1029 ft | 2 kts | 197° |
| 2026-05-07 10:31 | -4.38868 | 15.44506 | 1010 ft | 4 kts | 154° |
| 2026-05-07 10:31 | -4.38859 | 15.44493 | 1010 ft | 3 kts | 67° |
| 2026-05-07 10:31 | -4.38862 | 15.44486 | 1010 ft | 0 kts | 64° |
| 2026-05-07 10:36 | -4.38861 | 15.44487 | 1010 ft | 0 kts | 58° |
| 2026-05-07 10:36 | -4.38858 | 15.44491 | 1010 ft | 1 kts | 46° |
| 2026-05-07 10:37 | -4.38852 | 15.44496 | 1010 ft | 2 kts | 35° |
| 2026-05-07 10:37 | -4.38839 | 15.44504 | 1010 ft | 3 kts | 29° |
| 2026-05-07 10:37 | -4.38819 | 15.44513 | 1010 ft | 4 kts | 22° |
| 2026-05-07 10:37 | -4.38792 | 15.44525 | 1011 ft | 5 kts | 22° |
| 2026-05-07 10:38 | -4.38758 | 15.44540 | 1011 ft | 6 kts | 31° |
| 2026-05-07 10:38 | -4.38725 | 15.44569 | 1011 ft | 7 kts | 45° |
| 2026-05-07 10:38 | -4.38697 | 15.44610 | 1011 ft | 8 kts | 63° |
| 2026-05-07 10:38 | -4.38668 | 15.44659 | 1011 ft | 9 kts | 52° |
| 2026-05-07 10:39 | -4.38631 | 15.44713 | 1011 ft | 10 kts | 57° |
| 2026-05-07 10:39 | -4.38590 | 15.44776 | 1011 ft | 12 kts | 57° |
| 2026-05-07 10:39 | -4.38546 | 15.44844 | 1011 ft | 11 kts | 57° |
| 2026-05-07 10:39 | -4.38510 | 15.44901 | 1011 ft | 8 kts | 55° |
| 2026-05-07 10:40 | -4.38475 | 15.44917 | 1011 ft | 4 kts | 354° |
| 2026-05-07 10:40 | -4.38455 | 15.44910 | 1011 ft | 2 kts | 335° |
| 2026-05-07 10:40 | -4.38440 | 15.44903 | 1011 ft | 4 kts | 335° |
| 2026-05-07 10:40 | -4.38395 | 15.44873 | 1012 ft | 9 kts | 325° |
| 2026-05-07 10:41 | -4.38360 | 15.44842 | 1012 ft | 5 kts | 301° |
| 2026-05-07 10:41 | -4.38353 | 15.44813 | 1012 ft | 5 kts | 269° |
| 2026-05-07 10:41 | -4.38364 | 15.44774 | 1012 ft | 7 kts | 239° |
| 2026-05-07 10:41 | -4.38371 | 15.44763 | 1012 ft | 0 kts | 236° |
| 2026-05-07 10:42 | -4.38378 | 15.44752 | 1012 ft | 9 kts | 236° |
| 2026-05-07 10:42 | -4.38490 | 15.44580 | 1013 ft | 49 kts | 239° |
| 2026-05-07 10:42 | -4.38748 | 15.44184 | 1010 ft | 85 kts | 236° |
| 2026-05-07 10:42 | -4.39122 | 15.43606 | 1011 ft | 111 kts | 237° |
| 2026-05-07 10:43 | -4.39569 | 15.42917 | 1085 ft | 122 kts | 239° |
| 2026-05-07 10:43 | -4.40029 | 15.42191 | 1248 ft | 126 kts | 240° |
| 2026-05-07 10:43 | -4.40495 | 15.41407 | 1337 ft | 134 kts | 242° |
| 2026-05-07 10:43 | -4.40979 | 15.40569 | 1428 ft | 146 kts | 240° |
| 2026-05-07 10:44 | -4.41537 | 15.39692 | 1481 ft | 157 kts | 239° |
| 2026-05-07 10:44 | -4.42159 | 15.38754 | 1631 ft | 165 kts | 238° |
| 2026-05-07 10:44 | -4.42754 | 15.37772 | 1862 ft | 167 kts | 243° |
| 2026-05-07 10:44 | -4.43313 | 15.36722 | 2009 ft | 173 kts | 240° |
| 2026-05-07 10:45 | -4.43943 | 15.35690 | 2146 ft | 175 kts | 238° |
| 2026-05-07 10:45 | -4.44589 | 15.34649 | 2305 ft | 176 kts | 239° |
| 2026-05-07 10:45 | -4.45235 | 15.33603 | 2471 ft | 176 kts | 236° |
| 2026-05-07 10:45 | -4.46142 | 15.32782 | 2593 ft | 180 kts | 206° |
| 2026-05-07 10:46 | -4.47350 | 15.32587 | 2719 ft | 182 kts | 173° |
| 2026-05-07 10:46 | -4.48500 | 15.33091 | 2872 ft | 184 kts | 141° |
| 2026-05-07 10:46 | -4.49210 | 15.34140 | 3017 ft | 185 kts | 108° |
| 2026-05-07 10:46 | -4.49256 | 15.35413 | 3166 ft | 186 kts | 76° |
| 2026-05-07 10:47 | -4.48624 | 15.36526 | 3313 ft | 186 kts | 44° |
| 2026-05-07 10:47 | -4.47508 | 15.37160 | 3475 ft | 185 kts | 18° |
| 2026-05-07 10:47 | -4.46345 | 15.37679 | 3651 ft | 183 kts | 32° |
| 2026-05-07 10:47 | -4.45303 | 15.38407 | 3825 ft | 182 kts | 36° |
| 2026-05-07 10:48 | -4.44269 | 15.39117 | 3995 ft | 183 kts | 34° |
| 2026-05-07 10:48 | -4.43216 | 15.39831 | 4173 ft | 183 kts | 34° |
| 2026-05-07 10:48 | -4.42161 | 15.40547 | 4354 ft | 183 kts | 34° |
| 2026-05-07 10:48 | -4.41109 | 15.41264 | 4538 ft | 183 kts | 35° |
| 2026-05-07 10:49 | -4.40053 | 15.41972 | 4727 ft | 182 kts | 32° |
| 2026-05-07 10:49 | -4.38976 | 15.42634 | 4888 ft | 182 kts | 34° |
| 2026-05-07 10:49 | -4.37927 | 15.43353 | 5056 ft | 183 kts | 34° |
| 2026-05-07 10:49 | -4.36862 | 15.44051 | 5230 ft | 183 kts | 33° |
| 2026-05-07 10:50 | -4.35792 | 15.44745 | 5421 ft | 183 kts | 34° |
| 2026-05-07 10:50 | -4.34738 | 15.45431 | 5614 ft | 183 kts | 34° |
| 2026-05-07 10:50 | -4.33670 | 15.46125 | 5780 ft | 183 kts | 33° |
| 2026-05-07 10:50 | -4.32599 | 15.46819 | 5931 ft | 183 kts | 34° |
| 2026-05-07 10:51 | -4.31528 | 15.47516 | 6094 ft | 184 kts | 34° |
| 2026-05-07 10:51 | -4.30453 | 15.48216 | 6262 ft | 184 kts | 34° |
| 2026-05-07 10:51 | -4.29375 | 15.48916 | 6421 ft | 185 kts | 34° |
| 2026-05-07 10:51 | -4.28295 | 15.49615 | 6561 ft | 185 kts | 34° |
| 2026-05-07 10:52 | -4.27215 | 15.50318 | 6714 ft | 186 kts | 33° |
| 2026-05-07 10:52 | -4.26130 | 15.51022 | 6859 ft | 186 kts | 33° |
| 2026-05-07 10:52 | -4.25057 | 15.51720 | 7009 ft | 187 kts | 33° |
| 2026-05-07 10:52 | -4.23966 | 15.52426 | 7159 ft | 187 kts | 33° |
| 2026-05-07 10:53 | -4.22875 | 15.53137 | 7315 ft | 187 kts | 33° |
| 2026-05-07 10:53 | -4.21780 | 15.53845 | 7469 ft | 187 kts | 33° |
| 2026-05-07 10:53 | -4.20686 | 15.54556 | 7619 ft | 187 kts | 33° |
| 2026-05-07 10:53 | -4.19592 | 15.55266 | 7760 ft | 188 kts | 33° |
| 2026-05-07 10:54 | -4.18494 | 15.55978 | 7910 ft | 188 kts | 33° |
| 2026-05-07 10:54 | -4.17392 | 15.56690 | 8067 ft | 189 kts | 33° |
| 2026-05-07 10:54 | -4.16292 | 15.57406 | 8216 ft | 189 kts | 33° |
| 2026-05-07 10:54 | -4.15202 | 15.58112 | 8364 ft | 189 kts | 33° |
| 2026-05-07 10:55 | -4.14097 | 15.58831 | 8511 ft | 190 kts | 33° |
| 2026-05-07 10:55 | -4.12986 | 15.59548 | 8661 ft | 190 kts | 33° |
| 2026-05-07 10:55 | -4.11876 | 15.60270 | 8811 ft | 191 kts | 33° |
| 2026-05-07 10:55 | -4.10762 | 15.60992 | 8965 ft | 191 kts | 33° |
| 2026-05-07 10:56 | -4.09645 | 15.61717 | 9113 ft | 191 kts | 33° |
| 2026-05-07 10:56 | -4.08526 | 15.62443 | 9264 ft | 192 kts | 33° |
| 2026-05-07 10:56 | -4.07404 | 15.63170 | 9414 ft | 192 kts | 32° |
| 2026-05-07 10:56 | -4.06280 | 15.63899 | 9556 ft | 193 kts | 33° |
| 2026-05-07 10:57 | -4.05171 | 15.64618 | 9710 ft | 193 kts | 32° |
| 2026-05-07 10:57 | -4.04045 | 15.65348 | 9851 ft | 193 kts | 32° |
| 2026-05-07 10:57 | -4.02918 | 15.66079 | 9973 ft | 193 kts | 32° |
| 2026-05-07 10:57 | -4.01792 | 15.66809 | 10108 ft | 193 kts | 33° |
| 2026-05-07 10:58 | -4.00668 | 15.67540 | 10240 ft | 192 kts | 32° |
| 2026-05-07 10:58 | -3.99544 | 15.68266 | 10359 ft | 192 kts | 32° |
| 2026-05-07 10:58 | -3.98422 | 15.68995 | 10488 ft | 192 kts | 33° |
| 2026-05-07 10:58 | -3.97303 | 15.69719 | 10598 ft | 192 kts | 32° |
| 2026-05-07 10:59 | -3.96183 | 15.70446 | 10726 ft | 192 kts | 33° |
| 2026-05-07 10:59 | -3.95060 | 15.71174 | 10861 ft | 193 kts | 32° |
| 2026-05-07 10:59 | -3.93933 | 15.71904 | 10999 ft | 193 kts | 33° |
| 2026-05-07 10:59 | -3.92821 | 15.72625 | 11134 ft | 193 kts | 33° |
| 2026-05-07 11:00 | -3.91695 | 15.73356 | 11274 ft | 193 kts | 33° |
| 2026-05-07 11:00 | -3.90568 | 15.74085 | 11405 ft | 193 kts | 33° |
| 2026-05-07 11:00 | -3.89443 | 15.74814 | 11530 ft | 193 kts | 33° |
| 2026-05-07 11:00 | -3.88316 | 15.75546 | 11671 ft | 193 kts | 33° |
| 2026-05-07 11:01 | -3.87186 | 15.76278 | 11812 ft | 194 kts | 33° |
| 2026-05-07 11:01 | -3.86055 | 15.77011 | 11943 ft | 194 kts | 33° |
| 2026-05-07 11:01 | -3.84921 | 15.77745 | 12089 ft | 194 kts | 33° |
| 2026-05-07 11:01 | -3.83803 | 15.78470 | 12221 ft | 194 kts | 33° |
| 2026-05-07 11:02 | -3.82671 | 15.79204 | 12350 ft | 194 kts | 33° |
| 2026-05-07 11:02 | -3.81537 | 15.79939 | 12489 ft | 194 kts | 33° |
| 2026-05-07 11:02 | -3.80404 | 15.80672 | 12631 ft | 194 kts | 33° |
| 2026-05-07 11:02 | -3.79270 | 15.81408 | 12768 ft | 194 kts | 33° |
| 2026-05-07 11:03 | -3.78134 | 15.82143 | 12905 ft | 195 kts | 33° |
| 2026-05-07 11:03 | -3.76996 | 15.82881 | 13049 ft | 195 kts | 33° |
| 2026-05-07 11:03 | -3.75856 | 15.83620 | 13193 ft | 195 kts | 33° |
| 2026-05-07 11:03 | -3.74715 | 15.84359 | 13327 ft | 195 kts | 34° |
| 2026-05-07 11:04 | -3.73576 | 15.85098 | 13473 ft | 195 kts | 33° |
| 2026-05-07 11:04 | -3.72451 | 15.85825 | 13578 ft | 195 kts | 34° |
| 2026-05-07 11:04 | -3.71311 | 15.86564 | 13697 ft | 195 kts | 34° |
| 2026-05-07 11:04 | -3.70174 | 15.87302 | 13810 ft | 195 kts | 34° |
| 2026-05-07 11:05 | -3.69035 | 15.88038 | 13919 ft | 195 kts | 34° |
| 2026-05-07 11:05 | -3.67898 | 15.88775 | 14027 ft | 195 kts | 34° |
| 2026-05-07 11:05 | -3.66756 | 15.89516 | 14141 ft | 196 kts | 34° |
| 2026-05-07 11:05 | -3.65606 | 15.90258 | 14235 ft | 197 kts | 35° |
| 2026-05-07 11:06 | -3.64452 | 15.91008 | 14340 ft | 198 kts | 35° |
| 2026-05-07 11:06 | -3.63309 | 15.91748 | 14451 ft | 199 kts | 34° |
| 2026-05-07 11:06 | -3.62148 | 15.92499 | 14554 ft | 199 kts | 34° |
| 2026-05-07 11:06 | -3.60985 | 15.93253 | 14669 ft | 199 kts | 35° |
| 2026-05-07 11:07 | -3.59819 | 15.94007 | 14787 ft | 200 kts | 34° |
| 2026-05-07 11:07 | -3.58653 | 15.94764 | 14895 ft | 200 kts | 34° |
| 2026-05-07 11:07 | -3.57480 | 15.95522 | 15007 ft | 201 kts | 34° |
| 2026-05-07 11:07 | -3.56309 | 15.96282 | 15116 ft | 201 kts | 34° |
| 2026-05-07 11:08 | -3.55132 | 15.97043 | 15228 ft | 201 kts | 34° |
| 2026-05-07 11:08 | -3.53956 | 15.97805 | 15339 ft | 201 kts | 35° |
| 2026-05-07 11:08 | -3.52795 | 15.98557 | 15447 ft | 201 kts | 34° |
| 2026-05-07 11:08 | -3.51620 | 15.99318 | 15557 ft | 202 kts | 34° |
| 2026-05-07 11:09 | -3.50441 | 16.00081 | 15662 ft | 202 kts | 34° |
| 2026-05-07 11:09 | -3.49264 | 16.00843 | 15764 ft | 202 kts | 35° |
| 2026-05-07 11:09 | -3.48087 | 16.01606 | 15867 ft | 202 kts | 34° |
| 2026-05-07 11:09 | -3.46908 | 16.02368 | 15963 ft | 202 kts | 34° |
| 2026-05-07 11:10 | -3.45731 | 16.03131 | 16069 ft | 202 kts | 34° |
| 2026-05-07 11:10 | -3.44552 | 16.03893 | 16153 ft | 202 kts | 34° |
| 2026-05-07 11:10 | -3.43375 | 16.04656 | 16242 ft | 202 kts | 34° |
| 2026-05-07 11:10 | -3.42213 | 16.05407 | 16331 ft | 202 kts | 34° |
| 2026-05-07 11:11 | -3.41036 | 16.06170 | 16421 ft | 202 kts | 34° |
| 2026-05-07 11:11 | -3.39856 | 16.06932 | 16508 ft | 202 kts | 34° |
| 2026-05-07 11:11 | -3.38677 | 16.07697 | 16597 ft | 202 kts | 34° |
| 2026-05-07 11:11 | -3.37495 | 16.08462 | 16690 ft | 202 kts | 34° |
| 2026-05-07 11:12 | -3.36312 | 16.09227 | 16777 ft | 203 kts | 34° |
| 2026-05-07 11:12 | -3.35128 | 16.09994 | 16863 ft | 203 kts | 34° |
| 2026-05-07 11:12 | -3.33944 | 16.10760 | 16949 ft | 203 kts | 35° |
| 2026-05-07 11:12 | -3.32747 | 16.11535 | 16954 ft | 207 kts | 34° |
| 2026-05-07 11:13 | -3.31522 | 16.12328 | 16964 ft | 212 kts | 34° |
| 2026-05-07 11:13 | -3.30286 | 16.13127 | 16964 ft | 217 kts | 34° |
| 2026-05-07 11:13 | -3.29002 | 16.13953 | 16955 ft | 222 kts | 34° |
| 2026-05-07 11:13 | -3.27695 | 16.14795 | 16962 ft | 226 kts | 34° |
| 2026-05-07 11:14 | -3.26364 | 16.15653 | 16949 ft | 230 kts | 34° |
| 2026-05-07 11:14 | -3.25006 | 16.16527 | 16954 ft | 234 kts | 34° |
| 2026-05-07 11:14 | -3.23640 | 16.17406 | 16953 ft | 233 kts | 34° |
| 2026-05-07 11:14 | -3.22281 | 16.18282 | 16950 ft | 232 kts | 34° |
| 2026-05-07 11:15 | -3.20929 | 16.19154 | 16944 ft | 231 kts | 34° |
| 2026-05-07 11:15 | -3.19581 | 16.20021 | 16935 ft | 230 kts | 34° |
| 2026-05-07 11:15 | -3.18259 | 16.20872 | 16939 ft | 229 kts | 34° |
| 2026-05-07 11:15 | -3.16922 | 16.21733 | 16931 ft | 228 kts | 34° |
| 2026-05-07 11:16 | -3.15590 | 16.22592 | 16934 ft | 227 kts | 34° |
| 2026-05-07 11:16 | -3.14263 | 16.23446 | 16932 ft | 226 kts | 34° |
| 2026-05-07 11:16 | -3.12942 | 16.24298 | 16930 ft | 226 kts | 34° |
| 2026-05-07 11:16 | -3.11625 | 16.25145 | 16931 ft | 225 kts | 34° |
| 2026-05-07 11:17 | -3.10313 | 16.25991 | 16928 ft | 224 kts | 34° |
| 2026-05-07 11:17 | -3.09003 | 16.26833 | 16933 ft | 223 kts | 34° |
| 2026-05-07 11:17 | -3.07718 | 16.27662 | 16929 ft | 223 kts | 34° |
| 2026-05-07 11:17 | -3.06414 | 16.28500 | 16929 ft | 222 kts | 34° |
| 2026-05-07 11:18 | -3.05119 | 16.29335 | 16931 ft | 221 kts | 34° |
| 2026-05-07 11:18 | -3.03825 | 16.30167 | 16932 ft | 221 kts | 34° |
| 2026-05-07 11:18 | -3.02536 | 16.30999 | 16931 ft | 220 kts | 34° |
| 2026-05-07 11:18 | -3.01251 | 16.31824 | 16926 ft | 219 kts | 34° |
| 2026-05-07 11:19 | -2.99968 | 16.32652 | 16927 ft | 219 kts | 34° |
| 2026-05-07 11:19 | -2.98684 | 16.33478 | 16929 ft | 220 kts | 34° |
| 2026-05-07 11:19 | -2.97399 | 16.34306 | 16928 ft | 220 kts | 34° |
| 2026-05-07 11:19 | -2.96111 | 16.35134 | 16932 ft | 220 kts | 34° |
| 2026-05-07 11:20 | -2.94840 | 16.35953 | 16932 ft | 220 kts | 34° |
| 2026-05-07 11:20 | -2.93550 | 16.36783 | 16929 ft | 221 kts | 34° |
| 2026-05-07 11:20 | -2.92258 | 16.37615 | 16929 ft | 221 kts | 34° |
| 2026-05-07 11:20 | -2.90968 | 16.38445 | 16933 ft | 221 kts | 34° |
| 2026-05-07 11:21 | -2.89677 | 16.39276 | 16929 ft | 221 kts | 34° |
| 2026-05-07 11:21 | -2.88385 | 16.40108 | 16932 ft | 221 kts | 34° |
| 2026-05-07 11:21 | -2.87091 | 16.40941 | 16930 ft | 221 kts | 34° |
| 2026-05-07 11:21 | -2.85796 | 16.41775 | 16931 ft | 221 kts | 34° |
| 2026-05-07 11:22 | -2.84518 | 16.42596 | 16937 ft | 221 kts | 34° |
| 2026-05-07 11:22 | -2.83222 | 16.43431 | 16937 ft | 222 kts | 34° |
| 2026-05-07 11:22 | -2.81926 | 16.44265 | 16938 ft | 222 kts | 34° |
| 2026-05-07 11:22 | -2.80627 | 16.45100 | 16932 ft | 222 kts | 34° |
| 2026-05-07 11:23 | -2.79329 | 16.45936 | 16939 ft | 222 kts | 34° |
| 2026-05-07 11:23 | -2.78029 | 16.46772 | 16941 ft | 222 kts | 34° |
| 2026-05-07 11:23 | -2.76727 | 16.47611 | 16942 ft | 222 kts | 34° |
| 2026-05-07 11:23 | -2.75426 | 16.48448 | 16936 ft | 223 kts | 34° |
| 2026-05-07 11:24 | -2.74132 | 16.49280 | 16937 ft | 225 kts | 34° |
| 2026-05-07 11:24 | -2.72818 | 16.50125 | 16933 ft | 225 kts | 34° |
| 2026-05-07 11:24 | -2.71500 | 16.50975 | 16929 ft | 225 kts | 34° |
| 2026-05-07 11:24 | -2.70183 | 16.51822 | 16933 ft | 225 kts | 34° |
| 2026-05-07 11:25 | -2.68866 | 16.52668 | 16937 ft | 225 kts | 34° |
| 2026-05-07 11:25 | -2.67548 | 16.53516 | 16933 ft | 225 kts | 34° |
| 2026-05-07 11:25 | -2.66231 | 16.54363 | 16928 ft | 225 kts | 34° |
| 2026-05-07 11:25 | -2.64911 | 16.55214 | 16934 ft | 226 kts | 34° |
| 2026-05-07 11:26 | -2.63604 | 16.56054 | 16932 ft | 227 kts | 34° |
| 2026-05-07 11:26 | -2.62275 | 16.56909 | 16930 ft | 227 kts | 34° |
| 2026-05-07 11:26 | -2.60947 | 16.57763 | 16930 ft | 227 kts | 34° |
| 2026-05-07 11:26 | -2.59620 | 16.58617 | 16926 ft | 227 kts | 34° |
| 2026-05-07 11:27 | -2.58292 | 16.59471 | 16937 ft | 227 kts | 34° |
| 2026-05-07 11:27 | -2.56964 | 16.60326 | 16929 ft | 227 kts | 34° |
| 2026-05-07 11:27 | -2.55638 | 16.61178 | 16931 ft | 227 kts | 34° |
| 2026-05-07 11:27 | -2.54313 | 16.62030 | 16924 ft | 227 kts | 34° |
| 2026-05-07 11:28 | -2.52989 | 16.62882 | 16928 ft | 227 kts | 34° |
| 2026-05-07 11:28 | -2.51680 | 16.63724 | 16930 ft | 227 kts | 34° |
| 2026-05-07 11:28 | -2.50353 | 16.64577 | 16937 ft | 227 kts | 34° |
| 2026-05-07 11:28 | -2.49028 | 16.65430 | 16929 ft | 227 kts | 34° |
| 2026-05-07 11:29 | -2.47701 | 16.66283 | 16930 ft | 227 kts | 34° |
| 2026-05-07 11:29 | -2.46373 | 16.67137 | 16924 ft | 227 kts | 34° |
| 2026-05-07 11:29 | -2.45045 | 16.67991 | 16930 ft | 227 kts | 34° |
| 2026-05-07 11:29 | -2.43718 | 16.68845 | 16929 ft | 227 kts | 34° |
| 2026-05-07 11:30 | -2.42394 | 16.69697 | 16926 ft | 227 kts | 34° |
| 2026-05-07 11:30 | -2.41067 | 16.70549 | 16926 ft | 227 kts | 34° |
| 2026-05-07 11:30 | -2.39759 | 16.71392 | 16931 ft | 227 kts | 34° |
| 2026-05-07 11:30 | -2.38428 | 16.72246 | 16921 ft | 228 kts | 34° |
| 2026-05-07 11:31 | -2.37097 | 16.73103 | 16928 ft | 228 kts | 34° |
| 2026-05-07 11:31 | -2.35764 | 16.73959 | 16928 ft | 228 kts | 34° |
| 2026-05-07 11:31 | -2.34432 | 16.74816 | 16923 ft | 228 kts | 34° |
| 2026-05-07 11:31 | -2.33102 | 16.75671 | 16919 ft | 228 kts | 34° |
| 2026-05-07 11:32 | -2.30434 | 16.77386 | 16922 ft | 228 kts | 34° |
| 2026-05-07 11:32 | -2.29100 | 16.78242 | 16921 ft | 228 kts | 34° |
| 2026-05-07 11:32 | -2.27786 | 16.79087 | 16921 ft | 228 kts | 34° |
| 2026-05-07 11:33 | -2.26454 | 16.79941 | 16923 ft | 228 kts | 34° |
| 2026-05-07 11:33 | -2.25123 | 16.80797 | 16923 ft | 228 kts | 34° |
| 2026-05-07 11:33 | -2.23787 | 16.81653 | 16922 ft | 229 kts | 34° |
| 2026-05-07 11:33 | -2.22443 | 16.82518 | 16921 ft | 231 kts | 34° |
| 2026-05-07 11:34 | -2.21090 | 16.83386 | 16919 ft | 231 kts | 34° |
| 2026-05-07 11:34 | -2.19740 | 16.84253 | 16915 ft | 231 kts | 34° |
| 2026-05-07 11:34 | -2.18390 | 16.85119 | 16915 ft | 230 kts | 34° |
| 2026-05-07 11:34 | -2.17043 | 16.85984 | 16918 ft | 230 kts | 34° |
| 2026-05-07 11:35 | -2.15717 | 16.86836 | 16915 ft | 230 kts | 34° |
| 2026-05-07 11:35 | -2.14374 | 16.87699 | 16916 ft | 229 kts | 34° |
| 2026-05-07 11:35 | -2.13032 | 16.88559 | 16912 ft | 229 kts | 34° |
| 2026-05-07 11:35 | -2.11692 | 16.89420 | 16915 ft | 229 kts | 34° |
| 2026-05-07 11:36 | -2.10352 | 16.90281 | 16912 ft | 229 kts | 34° |
| 2026-05-07 11:36 | -2.09016 | 16.91138 | 16915 ft | 228 kts | 34° |
| 2026-05-07 11:36 | -2.07680 | 16.91996 | 16913 ft | 228 kts | 34° |
| 2026-05-07 11:36 | -2.06346 | 16.92854 | 16911 ft | 228 kts | 34° |
| 2026-05-07 11:37 | -2.05011 | 16.93708 | 16912 ft | 228 kts | 34° |
| 2026-05-07 11:37 | -2.03696 | 16.94553 | 16909 ft | 228 kts | 34° |
| 2026-05-07 11:37 | -2.02364 | 16.95409 | 16912 ft | 228 kts | 34° |
| 2026-05-07 11:37 | -2.01029 | 16.96266 | 16912 ft | 229 kts | 34° |
| 2026-05-07 11:38 | -1.99687 | 16.97127 | 16916 ft | 230 kts | 34° |
| 2026-05-07 11:38 | -1.98339 | 16.97993 | 16914 ft | 230 kts | 34° |
| 2026-05-07 11:38 | -1.96991 | 16.98859 | 16910 ft | 230 kts | 34° |
| 2026-05-07 11:38 | -1.95643 | 16.99722 | 16912 ft | 230 kts | 34° |
| 2026-05-07 11:39 | -1.94298 | 17.00587 | 16911 ft | 229 kts | 34° |
| 2026-05-07 11:39 | -1.92976 | 17.01436 | 16912 ft | 229 kts | 34° |
| 2026-05-07 11:39 | -1.91635 | 17.02295 | 16912 ft | 229 kts | 34° |
| 2026-05-07 11:39 | -1.90297 | 17.03155 | 16902 ft | 229 kts | 34° |
| 2026-05-07 11:40 | -1.88959 | 17.04013 | 16911 ft | 228 kts | 34° |
| 2026-05-07 11:40 | -1.87621 | 17.04872 | 16912 ft | 229 kts | 34° |
| 2026-05-07 11:40 | -1.86283 | 17.05731 | 16909 ft | 229 kts | 34° |
| 2026-05-07 11:40 | -1.84945 | 17.06589 | 16909 ft | 228 kts | 34° |
| 2026-05-07 11:41 | -1.83607 | 17.07448 | 16914 ft | 228 kts | 34° |
| 2026-05-07 11:41 | -1.82269 | 17.08307 | 16914 ft | 229 kts | 34° |
| 2026-05-07 11:41 | -1.80950 | 17.09154 | 16912 ft | 228 kts | 34° |
| 2026-05-07 11:41 | -1.79614 | 17.10011 | 16909 ft | 228 kts | 34° |
| 2026-05-07 11:42 | -1.78279 | 17.10868 | 16912 ft | 228 kts | 34° |
| 2026-05-07 11:42 | -1.76947 | 17.11723 | 16914 ft | 228 kts | 34° |
| 2026-05-07 11:42 | -1.75614 | 17.12577 | 16912 ft | 227 kts | 34° |
| 2026-05-07 11:42 | -1.74280 | 17.13434 | 16911 ft | 228 kts | 34° |
| 2026-05-07 11:43 | -1.72940 | 17.14294 | 16918 ft | 229 kts | 34° |
| 2026-05-07 11:43 | -1.71596 | 17.15156 | 16907 ft | 230 kts | 34° |
| 2026-05-07 11:43 | -1.70251 | 17.16019 | 16914 ft | 230 kts | 34° |
| 2026-05-07 11:43 | -1.68923 | 17.16871 | 16916 ft | 230 kts | 34° |
| 2026-05-07 11:44 | -1.67579 | 17.17735 | 16912 ft | 230 kts | 34° |
| 2026-05-07 11:44 | -1.66236 | 17.18596 | 16916 ft | 229 kts | 34° |
| 2026-05-07 11:44 | -1.64896 | 17.19455 | 16914 ft | 229 kts | 34° |
| 2026-05-07 11:44 | -1.63555 | 17.20315 | 16919 ft | 229 kts | 34° |
| 2026-05-07 11:45 | -1.62212 | 17.21178 | 16909 ft | 229 kts | 34° |
| 2026-05-07 11:45 | -1.60871 | 17.22038 | 16911 ft | 229 kts | 34° |
| 2026-05-07 11:45 | -1.59534 | 17.22895 | 16912 ft | 228 kts | 34° |
| 2026-05-07 11:45 | -1.58214 | 17.23741 | 16913 ft | 228 kts | 34° |
| 2026-05-07 11:46 | -1.56878 | 17.24600 | 16910 ft | 228 kts | 34° |
| 2026-05-07 11:46 | -1.55543 | 17.25456 | 16911 ft | 228 kts | 34° |
| 2026-05-07 11:46 | -1.54209 | 17.26313 | 16913 ft | 228 kts | 34° |
| 2026-05-07 11:46 | -1.52874 | 17.27168 | 16906 ft | 228 kts | 34° |
| 2026-05-07 11:47 | -1.51540 | 17.28024 | 16909 ft | 228 kts | 34° |
| 2026-05-07 11:47 | -1.50208 | 17.28879 | 16911 ft | 228 kts | 34° |
| 2026-05-07 11:47 | -1.48876 | 17.29732 | 16909 ft | 228 kts | 34° |
| 2026-05-07 11:47 | -1.47544 | 17.30588 | 16912 ft | 227 kts | 34° |
| 2026-05-07 11:48 | -1.46230 | 17.31430 | 16910 ft | 227 kts | 34° |
| 2026-05-07 11:48 | -1.44901 | 17.32283 | 16906 ft | 227 kts | 34° |
| 2026-05-07 11:48 | -1.43573 | 17.33135 | 16905 ft | 227 kts | 34° |
| 2026-05-07 11:48 | -1.42246 | 17.33987 | 16905 ft | 227 kts | 34° |
| 2026-05-07 11:49 | -1.40919 | 17.34837 | 16906 ft | 227 kts | 34° |
| 2026-05-07 11:49 | -1.39592 | 17.35688 | 16905 ft | 226 kts | 34° |
| 2026-05-07 11:49 | -1.38267 | 17.36538 | 16903 ft | 226 kts | 34° |
| 2026-05-07 11:49 | -1.36943 | 17.37389 | 16905 ft | 226 kts | 34° |
| 2026-05-07 11:50 | -1.35619 | 17.38236 | 16904 ft | 226 kts | 34° |
| 2026-05-07 11:50 | -1.34296 | 17.39086 | 16901 ft | 226 kts | 34° |
| 2026-05-07 11:50 | -1.32992 | 17.39922 | 16903 ft | 226 kts | 34° |
| 2026-05-07 11:50 | -1.31670 | 17.40770 | 16901 ft | 226 kts | 34° |
| 2026-05-07 11:51 | -1.30349 | 17.41617 | 16902 ft | 226 kts | 34° |
| 2026-05-07 11:51 | -1.29027 | 17.42465 | 16904 ft | 226 kts | 34° |
| 2026-05-07 11:51 | -1.27707 | 17.43312 | 16902 ft | 226 kts | 34° |
| 2026-05-07 11:51 | -1.26387 | 17.44158 | 16900 ft | 225 kts | 34° |
| 2026-05-07 11:52 | -1.25067 | 17.45005 | 16905 ft | 226 kts | 34° |
| 2026-05-07 11:52 | -1.23746 | 17.45852 | 16903 ft | 226 kts | 34° |
| 2026-05-07 11:52 | -1.22443 | 17.46688 | 16901 ft | 226 kts | 34° |
| 2026-05-07 11:52 | -1.21123 | 17.47534 | 16900 ft | 225 kts | 34° |
| 2026-05-07 11:53 | -1.19802 | 17.48381 | 16903 ft | 225 kts | 34° |
| 2026-05-07 11:53 | -1.18484 | 17.49227 | 16899 ft | 225 kts | 34° |
| 2026-05-07 11:53 | -1.17163 | 17.50074 | 16900 ft | 225 kts | 34° |
| 2026-05-07 11:53 | -1.15844 | 17.50920 | 16902 ft | 225 kts | 34° |
| 2026-05-07 11:54 | -1.14524 | 17.51766 | 16903 ft | 225 kts | 34° |
| 2026-05-07 11:54 | -1.13205 | 17.52612 | 16902 ft | 225 kts | 34° |
| 2026-05-07 11:54 | -1.11884 | 17.53459 | 16897 ft | 225 kts | 34° |
| 2026-05-07 11:54 | -1.10582 | 17.54294 | 16901 ft | 225 kts | 34° |
| 2026-05-07 11:55 | -1.09264 | 17.55140 | 16894 ft | 225 kts | 34° |
| 2026-05-07 11:55 | -1.07945 | 17.55985 | 16896 ft | 225 kts | 34° |
| 2026-05-07 11:55 | -1.06628 | 17.56830 | 16897 ft | 225 kts | 34° |
| 2026-05-07 11:55 | -1.05311 | 17.57674 | 16895 ft | 225 kts | 34° |
| 2026-05-07 11:56 | -1.03994 | 17.58519 | 16897 ft | 225 kts | 34° |
| 2026-05-07 11:56 | -1.02679 | 17.59362 | 16894 ft | 225 kts | 34° |
| 2026-05-07 11:56 | -1.01362 | 17.60207 | 16891 ft | 225 kts | 34° |
| 2026-05-07 11:56 | -1.00047 | 17.61049 | 16891 ft | 225 kts | 34° |
| 2026-05-07 11:57 | -0.98749 | 17.61882 | 16891 ft | 225 kts | 34° |
| 2026-05-07 11:57 | -0.97435 | 17.62724 | 16895 ft | 225 kts | 34° |
| 2026-05-07 11:57 | -0.96120 | 17.63568 | 16895 ft | 225 kts | 34° |
| 2026-05-07 11:57 | -0.94804 | 17.64411 | 16895 ft | 225 kts | 34° |
| 2026-05-07 11:58 | -0.93491 | 17.65254 | 16895 ft | 225 kts | 34° |
| 2026-05-07 11:58 | -0.92177 | 17.66096 | 16896 ft | 224 kts | 34° |
| 2026-05-07 11:58 | -0.90863 | 17.66939 | 16895 ft | 224 kts | 34° |
| 2026-05-07 11:58 | -0.89548 | 17.67781 | 16894 ft | 224 kts | 35° |
| 2026-05-07 11:59 | -0.88252 | 17.68614 | 16892 ft | 225 kts | 34° |
| 2026-05-07 11:59 | -0.86936 | 17.69457 | 16890 ft | 225 kts | 34° |
| 2026-05-07 11:59 | -0.85621 | 17.70300 | 16888 ft | 225 kts | 34° |
| 2026-05-07 11:59 | -0.84306 | 17.71143 | 16889 ft | 225 kts | 34° |
| 2026-05-07 12:00 | -0.82991 | 17.71985 | 16889 ft | 225 kts | 35° |
| 2026-05-07 12:00 | -0.81676 | 17.72829 | 16888 ft | 225 kts | 34° |
| 2026-05-07 12:00 | -0.80362 | 17.73671 | 16893 ft | 225 kts | 34° |
| 2026-05-07 12:00 | -0.79048 | 17.74515 | 16891 ft | 225 kts | 34° |
| 2026-05-07 12:01 | -0.77749 | 17.75347 | 16891 ft | 225 kts | 34° |
| 2026-05-07 12:01 | -0.76433 | 17.76189 | 16893 ft | 225 kts | 35° |
| 2026-05-07 12:01 | -0.75118 | 17.77034 | 16892 ft | 225 kts | 34° |
| 2026-05-07 12:01 | -0.73803 | 17.77876 | 16892 ft | 225 kts | 35° |
| 2026-05-07 12:02 | -0.72489 | 17.78720 | 16890 ft | 225 kts | 35° |
| 2026-05-07 12:02 | -0.71174 | 17.79562 | 16887 ft | 225 kts | 34° |
| 2026-05-07 12:02 | -0.69859 | 17.80406 | 16888 ft | 225 kts | 34° |
| 2026-05-07 12:02 | -0.68543 | 17.81249 | 16887 ft | 225 kts | 35° |
| 2026-05-07 12:03 | -0.67244 | 17.82081 | 16890 ft | 225 kts | 34° |
| 2026-05-07 12:03 | -0.65927 | 17.82926 | 16889 ft | 225 kts | 35° |
| 2026-05-07 12:03 | -0.64609 | 17.83771 | 16887 ft | 225 kts | 35° |
| 2026-05-07 12:03 | -0.63299 | 17.84629 | 16890 ft | 225 kts | 35° |
| 2026-05-07 12:04 | -0.61991 | 17.85485 | 16888 ft | 225 kts | 35° |
| 2026-05-07 12:04 | -0.60679 | 17.86340 | 16885 ft | 225 kts | 35° |
| 2026-05-07 12:04 | -0.59368 | 17.87196 | 16877 ft | 225 kts | 35° |
| 2026-05-07 12:04 | -0.58056 | 17.88050 | 16883 ft | 225 kts | 35° |
| 2026-05-07 12:05 | -0.56745 | 17.88905 | 16887 ft | 225 kts | 35° |
| 2026-05-07 12:05 | -0.55451 | 17.89749 | 16885 ft | 225 kts | 35° |
| 2026-05-07 12:05 | -0.54139 | 17.90604 | 16881 ft | 225 kts | 35° |
| 2026-05-07 12:05 | -0.52827 | 17.91460 | 16879 ft | 226 kts | 35° |
| 2026-05-07 12:06 | -0.51512 | 17.92317 | 16881 ft | 225 kts | 35° |
| 2026-05-07 12:06 | -0.50199 | 17.93174 | 16881 ft | 226 kts | 35° |
| 2026-05-07 12:06 | -0.48885 | 17.94029 | 16881 ft | 225 kts | 35° |
| 2026-05-07 12:06 | -0.47572 | 17.94885 | 16879 ft | 225 kts | 35° |
| 2026-05-07 12:07 | -0.46260 | 17.95741 | 16879 ft | 225 kts | 35° |
| 2026-05-07 12:07 | -0.44966 | 17.96585 | 16880 ft | 225 kts | 35° |
| 2026-05-07 12:07 | -0.43654 | 17.97440 | 16882 ft | 225 kts | 35° |
| 2026-05-07 12:07 | -0.42342 | 17.98295 | 16880 ft | 225 kts | 35° |
| 2026-05-07 12:08 | -0.41030 | 17.99151 | 16881 ft | 225 kts | 35° |
| 2026-05-07 12:08 | -0.39719 | 18.00006 | 16881 ft | 225 kts | 35° |
| 2026-05-07 12:08 | -0.38408 | 18.00860 | 16880 ft | 225 kts | 35° |
| 2026-05-07 12:08 | -0.37098 | 18.01715 | 16880 ft | 225 kts | 35° |
| 2026-05-07 12:09 | -0.35787 | 18.02569 | 16882 ft | 225 kts | 35° |
| 2026-05-07 12:09 | -0.34920 | 18.03134 | 16881 ft | 225 kts | 35° |
| 2026-05-07 12:09 | -0.33183 | 18.04267 | 16882 ft | 225 kts | 35° |
| 2026-05-07 12:09 | -0.31872 | 18.05121 | 16880 ft | 225 kts | 35° |
| 2026-05-07 12:10 | -0.30562 | 18.05976 | 16883 ft | 225 kts | 35° |
| 2026-05-07 12:10 | -0.29252 | 18.06829 | 16883 ft | 225 kts | 35° |
| 2026-05-07 12:10 | -0.27941 | 18.07685 | 16882 ft | 225 kts | 35° |
| 2026-05-07 12:10 | -0.26629 | 18.08539 | 16882 ft | 225 kts | 35° |
| 2026-05-07 12:11 | -0.25319 | 18.09394 | 16880 ft | 225 kts | 35° |
| 2026-05-07 12:11 | -0.24452 | 18.09959 | 16882 ft | 225 kts | 35° |
| 2026-05-07 12:11 | -0.23139 | 18.10815 | 16882 ft | 225 kts | 35° |
| 2026-05-07 12:11 | -0.21402 | 18.11947 | 16882 ft | 225 kts | 35° |
| 2026-05-07 12:12 | -0.20092 | 18.12801 | 16881 ft | 225 kts | 35° |
| 2026-05-07 12:12 | -0.19205 | 18.13379 | 16882 ft | 225 kts | 35° |
| 2026-05-07 12:12 | -0.17468 | 18.14511 | 16882 ft | 225 kts | 35° |
| 2026-05-07 12:12 | -0.16600 | 18.15077 | 16882 ft | 225 kts | 35° |
| 2026-05-07 12:13 | -0.15287 | 18.15933 | 16882 ft | 225 kts | 35° |
| 2026-05-07 12:13 | -0.13975 | 18.16790 | 16879 ft | 225 kts | 35° |
| 2026-05-07 12:13 | -0.12660 | 18.17645 | 16883 ft | 225 kts | 35° |
| 2026-05-07 12:13 | -0.11348 | 18.18502 | 16880 ft | 225 kts | 35° |
| 2026-05-07 12:14 | -0.10035 | 18.19356 | 16882 ft | 225 kts | 35° |
| 2026-05-07 12:14 | -0.08723 | 18.20214 | 16882 ft | 225 kts | 35° |
| 2026-05-07 12:14 | -0.07409 | 18.21069 | 16882 ft | 225 kts | 35° |
| 2026-05-07 12:14 | -0.06094 | 18.21927 | 16879 ft | 226 kts | 35° |
| 2026-05-07 12:15 | -0.04778 | 18.22785 | 16879 ft | 226 kts | 35° |
| 2026-05-07 12:15 | -0.03478 | 18.23631 | 16880 ft | 226 kts | 35° |
| 2026-05-07 12:15 | -0.02163 | 18.24489 | 16881 ft | 226 kts | 35° |
| 2026-05-07 12:15 | -0.00847 | 18.25347 | 16881 ft | 226 kts | 35° |
| 2026-05-07 12:16 | 0.00469 | 18.26205 | 16879 ft | 226 kts | 35° |
| 2026-05-07 12:16 | 0.01784 | 18.27063 | 16882 ft | 226 kts | 35° |
| 2026-05-07 12:16 | 0.03107 | 18.27926 | 16879 ft | 228 kts | 35° |
| 2026-05-07 12:16 | 0.04506 | 18.28676 | 16853 ft | 231 kts | 20° |
| 2026-05-07 12:17 | 0.06097 | 18.28902 | 16878 ft | 232 kts | 5° |
| 2026-05-07 12:17 | 0.07708 | 18.28971 | 16878 ft | 231 kts | 6° |
| 2026-05-07 12:17 | 0.09286 | 18.29112 | 16878 ft | 231 kts | 9° |
| 2026-05-07 12:17 | 0.10884 | 18.29280 | 16877 ft | 231 kts | 8° |
| 2026-05-07 12:18 | 0.12485 | 18.29434 | 16878 ft | 231 kts | 8° |
| 2026-05-07 12:18 | 0.14088 | 18.29585 | 16877 ft | 231 kts | 8° |
| 2026-05-07 12:18 | 0.15692 | 18.29737 | 16880 ft | 231 kts | 8° |
| 2026-05-07 12:18 | 0.17294 | 18.29890 | 16878 ft | 231 kts | 8° |
| 2026-05-07 12:19 | 0.18897 | 18.30043 | 16882 ft | 231 kts | 8° |
| 2026-05-07 12:19 | 0.20499 | 18.30196 | 16880 ft | 231 kts | 8° |
| 2026-05-07 12:19 | 0.22102 | 18.30348 | 16883 ft | 231 kts | 8° |
| 2026-05-07 12:19 | 0.23684 | 18.30500 | 16883 ft | 231 kts | 8° |
| 2026-05-07 12:20 | 0.25286 | 18.30652 | 16882 ft | 232 kts | 8° |
| 2026-05-07 12:20 | 0.26891 | 18.30807 | 16882 ft | 232 kts | 8° |
| 2026-05-07 12:20 | 0.28494 | 18.30958 | 16885 ft | 231 kts | 8° |
| 2026-05-07 12:20 | 0.30097 | 18.31112 | 16883 ft | 232 kts | 8° |
| 2026-05-07 12:21 | 0.31701 | 18.31264 | 16884 ft | 232 kts | 8° |
| 2026-05-07 12:21 | 0.33309 | 18.31417 | 16875 ft | 232 kts | 8° |
| 2026-05-07 12:21 | 0.34916 | 18.31572 | 16878 ft | 232 kts | 8° |
| 2026-05-07 12:21 | 0.36524 | 18.31724 | 16878 ft | 232 kts | 8° |
| 2026-05-07 12:22 | 0.38110 | 18.31876 | 16880 ft | 232 kts | 8° |
| 2026-05-07 12:22 | 0.39717 | 18.32029 | 16878 ft | 232 kts | 8° |
| 2026-05-07 12:22 | 0.41324 | 18.32182 | 16880 ft | 232 kts | 8° |
| 2026-05-07 12:22 | 0.42929 | 18.32335 | 16877 ft | 232 kts | 8° |
| 2026-05-07 12:23 | 0.44535 | 18.32489 | 16876 ft | 232 kts | 8° |
| 2026-05-07 12:23 | 0.46141 | 18.32641 | 16876 ft | 232 kts | 8° |
| 2026-05-07 12:23 | 0.47746 | 18.32795 | 16875 ft | 232 kts | 8° |
| 2026-05-07 12:23 | 0.49352 | 18.32947 | 16876 ft | 232 kts | 8° |
| 2026-05-07 12:24 | 0.50956 | 18.33101 | 16874 ft | 232 kts | 8° |
| 2026-05-07 12:24 | 0.52538 | 18.33252 | 16876 ft | 231 kts | 8° |
| 2026-05-07 12:24 | 0.54141 | 18.33404 | 16874 ft | 231 kts | 8° |
| 2026-05-07 12:24 | 0.55742 | 18.33558 | 16873 ft | 231 kts | 8° |
| 2026-05-07 12:25 | 0.57344 | 18.33711 | 16874 ft | 231 kts | 8° |
| 2026-05-07 12:25 | 0.58948 | 18.33863 | 16875 ft | 232 kts | 8° |
| 2026-05-07 12:25 | 0.60552 | 18.34017 | 16875 ft | 232 kts | 8° |
| 2026-05-07 12:25 | 0.62155 | 18.34169 | 16874 ft | 232 kts | 8° |
| 2026-05-07 12:26 | 0.63759 | 18.34323 | 16875 ft | 232 kts | 8° |
| 2026-05-07 12:26 | 0.65363 | 18.34474 | 16873 ft | 232 kts | 8° |
| 2026-05-07 12:26 | 0.66944 | 18.34627 | 16875 ft | 232 kts | 8° |
| 2026-05-07 12:26 | 0.68549 | 18.34779 | 16873 ft | 232 kts | 8° |
| 2026-05-07 12:27 | 0.70155 | 18.34932 | 16875 ft | 232 kts | 8° |
| 2026-05-07 12:27 | 0.71761 | 18.35085 | 16877 ft | 232 kts | 8° |
| 2026-05-07 12:27 | 0.73367 | 18.35240 | 16876 ft | 232 kts | 8° |
| 2026-05-07 12:27 | 0.74974 | 18.35391 | 16878 ft | 232 kts | 8° |
| 2026-05-07 12:28 | 0.76579 | 18.35545 | 16876 ft | 232 kts | 8° |
| 2026-05-07 12:28 | 0.78187 | 18.35700 | 16877 ft | 232 kts | 8° |
| 2026-05-07 12:28 | 0.79795 | 18.35850 | 16877 ft | 232 kts | 8° |
| 2026-05-07 12:28 | 0.81379 | 18.36003 | 16878 ft | 232 kts | 8° |
| 2026-05-07 12:29 | 0.82987 | 18.36157 | 16878 ft | 232 kts | 8° |
| 2026-05-07 12:29 | 0.84596 | 18.36309 | 16875 ft | 232 kts | 8° |
| 2026-05-07 12:29 | 0.86203 | 18.36462 | 16875 ft | 232 kts | 8° |
| 2026-05-07 12:29 | 0.87811 | 18.36601 | 16870 ft | 232 kts | 5° |
| 2026-05-07 12:30 | 0.89403 | 18.36297 | 16867 ft | 236 kts | 340° |
| 2026-05-07 12:30 | 0.90878 | 18.35572 | 16878 ft | 236 kts | 335° |
| 2026-05-07 12:30 | 0.92352 | 18.34851 | 16878 ft | 236 kts | 338° |
| 2026-05-07 12:30 | 0.93853 | 18.34195 | 16881 ft | 236 kts | 339° |
| 2026-05-07 12:31 | 0.95334 | 18.33543 | 16878 ft | 236 kts | 339° |
| 2026-05-07 12:31 | 0.96876 | 18.32854 | 16424 ft | 253 kts | 339° |
| 2026-05-07 12:31 | 0.98510 | 18.32125 | 16097 ft | 260 kts | 339° |
| 2026-05-07 12:31 | 1.00190 | 18.31371 | 15719 ft | 269 kts | 339° |
| 2026-05-07 12:32 | 1.01917 | 18.30601 | 15368 ft | 275 kts | 339° |
| 2026-05-07 12:32 | 1.03678 | 18.29813 | 15027 ft | 280 kts | 339° |
| 2026-05-07 12:32 | 1.05466 | 18.29013 | 14702 ft | 283 kts | 339° |
| 2026-05-07 12:32 | 1.07277 | 18.28205 | 14379 ft | 286 kts | 339° |
| 2026-05-07 12:33 | 1.10907 | 18.26583 | 13760 ft | 290 kts | 339° |
| 2026-05-07 12:33 | 1.12774 | 18.25750 | 13124 ft | 299 kts | 339° |
| 2026-05-07 12:33 | 1.14695 | 18.24891 | 12436 ft | 306 kts | 339° |
| 2026-05-07 12:34 | 1.16651 | 18.24016 | 11757 ft | 310 kts | 339° |
| 2026-05-07 12:34 | 1.18645 | 18.23125 | 10934 ft | 318 kts | 339° |
| 2026-05-07 12:34 | 1.20683 | 18.22216 | 10124 ft | 323 kts | 340° |
| 2026-05-07 12:34 | 1.22752 | 18.21291 | 9288 ft | 327 kts | 339° |
| 2026-05-07 12:35 | 1.24836 | 18.20360 | 8435 ft | 329 kts | 338° |
| 2026-05-07 12:35 | 1.26933 | 18.19422 | 7603 ft | 331 kts | 338° |
| 2026-05-07 12:35 | 1.29037 | 18.18481 | 6805 ft | 331 kts | 337° |
| 2026-05-07 12:35 | 1.31113 | 18.17554 | 6013 ft | 332 kts | 336° |
| 2026-05-07 12:36 | 1.33219 | 18.16612 | 5190 ft | 331 kts | 335° |
| 2026-05-07 12:36 | 1.35312 | 18.15676 | 4565 ft | 326 kts | 335° |
| 2026-05-07 12:36 | 1.37346 | 18.14767 | 4131 ft | 315 kts | 335° |
| 2026-05-07 12:36 | 1.39323 | 18.13885 | 3668 ft | 308 kts | 335° |
| 2026-05-07 12:37 | 1.41256 | 18.13021 | 3207 ft | 301 kts | 335° |
| 2026-05-07 12:37 | 1.43153 | 18.12171 | 2739 ft | 296 kts | 335° |
| 2026-05-07 12:37 | 1.45009 | 18.11342 | 2484 ft | 285 kts | 335° |
| 2026-05-07 12:37 | 1.46731 | 18.10574 | 2493 ft | 265 kts | 335° |
| 2026-05-07 12:38 | 1.48356 | 18.09848 | 2487 ft | 247 kts | 335° |
| 2026-05-07 12:38 | 1.49914 | 18.09234 | 2530 ft | 234 kts | 348° |
| 2026-05-07 12:38 | 1.51484 | 18.09186 | 2547 ft | 219 kts | 3° |
| 2026-05-07 12:38 | 1.52982 | 18.09336 | 2554 ft | 216 kts | 7° |
| 2026-05-07 12:39 | 1.54435 | 18.09587 | 2557 ft | 207 kts | 12° |
| 2026-05-07 12:39 | 1.55808 | 18.09880 | 2541 ft | 198 kts | 12° |
| 2026-05-07 12:39 | 1.57139 | 18.10109 | 2536 ft | 190 kts | 7° |
| 2026-05-07 12:39 | 1.58409 | 18.10196 | 2286 ft | 179 kts | 358° |
| 2026-05-07 12:40 | 1.59492 | 18.09897 | 2187 ft | 154 kts | 323° |
| 2026-05-07 12:40 | 1.59944 | 18.09066 | 1966 ft | 131 kts | 271° |
| 2026-05-07 12:40 | 1.59737 | 18.08205 | 1746 ft | 129 kts | 247° |
| 2026-05-07 12:40 | 1.59434 | 18.07377 | 1503 ft | 126 kts | 252° |
| 2026-05-07 12:41 | 1.59261 | 18.06527 | 1284 ft | 123 kts | 258° |
| 2026-05-07 12:41 | 1.59123 | 18.05694 | 1098 ft | 121 kts | 258° |
| 2026-05-07 12:41 | 1.58996 | 18.04948 | 1056 ft | 89 kts | 260° |
| 2026-05-07 12:41 | 1.58924 | 18.04522 | 1059 ft | 37 kts | 261° |
| 2026-05-07 12:42 | 1.58910 | 18.04414 | 1062 ft | 2 kts | 287° |
| 2026-05-07 12:42 | 1.58909 | 18.04408 | 1062 ft | 1 kts | 224° |
| 2026-05-07 12:42 | 1.58899 | 18.04413 | 1062 ft | 5 kts | 108° |
| 2026-05-07 12:42 | 1.58913 | 18.04481 | 1060 ft | 16 kts | 77° |
| 2026-05-07 12:43 | 1.58940 | 18.04631 | 1059 ft | 26 kts | 80° |
| 2026-05-07 12:43 | 1.58973 | 18.04802 | 1057 ft | 24 kts | 82° |
| 2026-05-07 12:43 | 1.58998 | 18.04957 | 1055 ft | 21 kts | 79° |
| 2026-05-07 12:43 | 1.59037 | 18.05068 | 1056 ft | 12 kts | 26° |
| 2026-05-07 12:44 | 1.59099 | 18.05067 | 1058 ft | 6 kts | 350° |
| 2026-05-07 12:44 | 1.59148 | 18.05059 | 1059 ft | 8 kts | 350° |
| 2026-05-07 12:44 | 1.59198 | 18.05058 | 1058 ft | 6 kts | 13° |
| 2026-05-07 12:44 | 1.59229 | 18.05071 | 1060 ft | 3 kts | 27° |
| 2026-05-07 12:45 | 1.59237 | 18.05075 | 1062 ft | 1 kts | 27° |
| 2026-05-07 12:45 | 1.59240 | 18.05076 | 1062 ft | 0 kts | 27° |